Time;durP1;ratioP1;P1;durP2;ratioP2;P2;SDS_P1;SDS_P2;PMS_P1;PMS_P2;Temp;Humidity;BMP_temperature;BMP_pressure;BME280_temperature;BME280_humidity;BME280_pressure;Samples;Min_cycle;Max_cycle;Signal;HPM_P1;HPM_P2
2023/06/18 00:00:59;;;;;;;9.73;8.80;;;;;;;;;;4978764;28;20610;-84
2023/06/18 00:03:27;;;;;;;10.43;9.43;;;;;;;;;;4996020;28;20657;-85
2023/06/18 00:05:56;;;;;;;10.70;9.70;;;;;;;;;;4997240;28;20648;-84
2023/06/18 00:08:25;;;;;;;10.80;9.90;;;;;;;;;;4979576;28;20685;-86
2023/06/18 00:10:54;;;;;;;13.03;9.20;;;;;;;;;;4974959;28;20665;-85
2023/06/18 00:13:22;;;;;;;9.67;8.87;;;;;;;;;;4997144;28;20605;-85
2023/06/18 00:15:50;;;;;;;11.73;9.10;;;;;;;;;;4996281;28;20614;-85
2023/06/18 00:18:19;;;;;;;11.13;9.30;;;;;;;;;;4996607;28;20688;-84
2023/06/18 00:20:48;;;;;;;10.70;8.93;;;;;;;;;;4994345;28;20654;-85
2023/06/18 00:23:17;;;;;;;9.47;8.47;;;;;;;;;;4994038;28;21290;-83
2023/06/18 00:25:46;;;;;;;15.53;9.50;;;;;;;;;;4993093;28;20632;-86
2023/06/18 00:28:14;;;;;;;11.93;8.83;;;;;;;;;;4993904;28;20653;-85
2023/06/18 00:30:43;;;;;;;9.70;8.47;;;;;;;;;;4999224;28;21215;-85
2023/06/18 00:33:11;;;;;;;9.50;8.70;;;;;;;;;;4966540;28;20630;-84
2023/06/18 00:35:40;;;;;;;8.70;7.80;;;;;;;;;;4977184;28;20709;-84
2023/06/18 00:38:09;;;;;;;11.53;9.60;;;;;;;;;;4988259;28;20734;-86
2023/06/18 00:40:37;;;;;;;9.43;8.37;;;;;;;;;;4980571;28;20626;-85
2023/06/18 00:43:06;;;;;;;10.90;9.73;;;;;;;;;;5012111;28;20685;-85
2023/06/18 00:45:37;;;;;;;10.47;9.57;;;;;;;;;;5000245;28;20658;-85
2023/06/18 00:48:05;;;;;;;10.77;9.00;;;;;;;;;;4993965;28;20637;-85
2023/06/18 00:50:35;;;;;;;15.97;8.93;;;;;;;;;;4999108;28;20772;-85
2023/06/18 00:53:04;;;;;;;9.30;8.47;;;;;;;;;;4979120;28;20938;-86
2023/06/18 00:55:33;;;;;;;9.87;7.80;;;;;;;;;;5000013;28;20724;-85
2023/06/18 00:58:02;;;;;;;12.30;9.37;;;;;;;;;;4963638;28;20633;-85
2023/06/18 01:00:34;;;;;;;10.10;8.57;;;;;;;;;;4964255;28;20693;-85
2023/06/18 01:03:03;;;;;;;9.03;8.23;;;;;;;;;;4963395;28;20623;-85
2023/06/18 01:05:33;;;;;;;13.20;9.73;;;;;;;;;;4997078;28;20673;-85
2023/06/18 01:08:06;;;;;;;9.60;8.70;;;;;;;;;;4981415;28;20640;-85
2023/06/18 01:10:38;;;;;;;9.60;8.70;;;;;;;;;;4981911;28;20764;-85
2023/06/18 01:13:09;;;;;;;10.40;9.40;;;;;;;;;;4998197;28;20640;-85
2023/06/18 01:15:38;;;;;;;12.13;9.60;;;;;;;;;;4998446;28;20644;-85
2023/06/18 01:18:08;;;;;;;9.57;8.73;;;;;;;;;;4996454;28;20970;-85
2023/06/18 01:20:40;;;;;;;9.23;8.33;;;;;;;;;;4981938;28;20653;-84
2023/06/18 01:23:14;;;;;;;11.37;9.93;;;;;;;;;;4996701;28;20760;-85
2023/06/18 01:25:43;;;;;;;9.67;8.87;;;;;;;;;;4980421;28;21046;-85
2023/06/18 01:28:11;;;;;;;9.10;8.27;;;;;;;;;;4997920;28;20625;-85
2023/06/18 01:30:42;;;;;;;10.70;9.10;;;;;;;;;;4998862;28;20700;-85
2023/06/18 01:33:12;;;;;;;13.80;8.80;;;;;;;;;;4980783;28;20616;-85
2023/06/18 01:35:41;;;;;;;11.30;8.87;;;;;;;;;;4980356;28;20630;-85
2023/06/18 01:38:18;;;;;;;9.60;8.70;;;;;;;;;;4967613;28;20617;-85
2023/06/18 01:40:47;;;;;;;9.87;8.87;;;;;;;;;;4987122;28;20618;-85
2023/06/18 01:43:20;;;;;;;10.17;9.27;;;;;;;;;;4979426;28;20621;-85
2023/06/18 01:45:52;;;;;;;13.93;9.50;;;;;;;;;;4973917;28;20691;-85
2023/06/18 01:48:22;;;;;;;13.70;8.97;;;;;;;;;;4978847;28;20658;-85
2023/06/18 01:50:51;;;;;;;10.97;10.07;;;;;;;;;;4979133;28;20580;-85
2023/06/18 01:53:21;;;;;;;23.00;11.10;;;;;;;;;;4996527;28;20632;-85
2023/06/18 01:55:51;;;;;;;12.20;9.43;;;;;;;;;;4944923;28;21213;-85
2023/06/18 01:58:22;;;;;;;10.30;9.20;;;;;;;;;;4979255;28;20610;-85
2023/06/18 02:00:52;;;;;;;10.10;9.20;;;;;;;;;;4959919;28;20703;-85
2023/06/18 02:03:21;;;;;;;15.97;9.87;;;;;;;;;;4979867;28;20607;-85
2023/06/18 02:05:50;;;;;;;12.60;8.90;;;;;;;;;;4978590;28;20646;-84
2023/06/18 02:08:18;;;;;;;9.70;8.83;;;;;;;;;;4980079;28;21085;-85
2023/06/18 02:10:48;;;;;;;9.90;8.90;;;;;;;;;;4979760;28;20606;-85
2023/06/18 02:13:16;;;;;;;10.47;9.37;;;;;;;;;;4963806;28;20609;-84
2023/06/18 02:15:45;;;;;;;10.60;9.60;;;;;;;;;;4997920;28;20708;-86
2023/06/18 02:18:15;;;;;;;10.13;9.23;;;;;;;;;;4997348;28;20630;-85
2023/06/18 02:20:44;;;;;;;9.77;8.80;;;;;;;;;;4996852;28;21609;-85
2023/06/18 02:23:12;;;;;;;10.50;9.40;;;;;;;;;;4997613;28;20758;-85
2023/06/18 02:25:44;;;;;;;9.57;8.77;;;;;;;;;;4997487;28;20736;-84
2023/06/18 02:28:13;;;;;;;9.97;9.07;;;;;;;;;;4996902;28;20695;-84
2023/06/18 02:30:41;;;;;;;9.20;8.30;;;;;;;;;;4997049;28;21238;-85
2023/06/18 02:33:10;;;;;;;10.13;9.10;;;;;;;;;;4997118;28;20598;-84
2023/06/18 02:35:42;;;;;;;10.77;9.57;;;;;;;;;;4969400;28;21244;-84
2023/06/18 02:38:12;;;;;;;12.10;9.70;;;;;;;;;;4960049;28;20644;-84
2023/06/18 02:40:40;;;;;;;10.57;8.70;;;;;;;;;;4959043;28;20662;-84
2023/06/18 02:43:09;;;;;;;10.37;9.20;;;;;;;;;;4977636;28;20622;-85
2023/06/18 02:45:37;;;;;;;9.43;8.60;;;;;;;;;;4977831;28;20631;-84
2023/06/18 02:48:05;;;;;;;12.00;9.87;;;;;;;;;;4977429;28;20686;-84
2023/06/18 02:50:34;;;;;;;9.93;8.80;;;;;;;;;;4977414;28;20612;-84
2023/06/18 02:53:04;;;;;;;11.40;9.17;;;;;;;;;;4977304;28;20642;-85
2023/06/18 02:55:32;;;;;;;10.27;9.00;;;;;;;;;;4996478;28;20568;-84
2023/06/18 02:58:04;;;;;;;10.43;9.40;;;;;;;;;;4960001;28;20611;-85
2023/06/18 03:00:32;;;;;;;10.27;9.37;;;;;;;;;;4976560;28;20596;-84
2023/06/18 03:03:00;;;;;;;11.03;9.93;;;;;;;;;;4977332;28;20608;-85
2023/06/18 03:05:33;;;;;;;8.83;7.93;;;;;;;;;;5009991;28;20635;-85
2023/06/18 03:08:01;;;;;;;9.50;8.70;;;;;;;;;;4977597;28;20596;-85
2023/06/18 03:10:31;;;;;;;14.87;9.57;;;;;;;;;;4963778;28;20653;-84
2023/06/18 03:13:00;;;;;;;10.47;9.13;;;;;;;;;;4945277;28;20598;-85
2023/06/18 03:15:39;;;;;;;11.03;10.10;;;;;;;;;;4987218;28;20618;-84
2023/06/18 03:18:08;;;;;;;10.90;9.87;;;;;;;;;;4943003;28;21203;-84
2023/06/18 03:20:37;;;;;;;10.53;9.53;;;;;;;;;;4974269;28;20663;-85
2023/06/18 03:23:06;;;;;;;9.43;8.53;;;;;;;;;;5010831;28;20821;-84
2023/06/18 03:25:36;;;;;;;10.80;9.90;;;;;;;;;;4972100;28;20702;-82
2023/06/18 03:28:05;;;;;;;9.97;9.00;;;;;;;;;;4960228;28;20659;-82
2023/06/18 03:30:36;;;;;;;10.10;9.10;;;;;;;;;;4968037;28;20596;-82
2023/06/18 03:33:05;;;;;;;9.47;7.90;;;;;;;;;;4993486;28;20619;-83
2023/06/18 03:35:36;;;;;;;9.73;8.73;;;;;;;;;;4966203;28;20611;-82
2023/06/18 03:38:04;;;;;;;11.37;10.03;;;;;;;;;;4977411;28;20604;-82
2023/06/18 03:40:33;;;;;;;11.73;10.40;;;;;;;;;;4975956;28;21267;-82
2023/06/18 03:43:02;;;;;;;9.87;9.00;;;;;;;;;;4976120;28;20599;-82
2023/06/18 03:45:31;;;;;;;12.87;9.37;;;;;;;;;;4975880;28;21241;-83
2023/06/18 03:48:00;;;;;;;10.47;9.30;;;;;;;;;;4976326;28;20610;-82
2023/06/18 03:50:34;;;;;;;9.87;8.90;;;;;;;;;;4975597;28;20605;-83
2023/06/18 03:53:03;;;;;;;9.63;8.57;;;;;;;;;;4959532;28;20593;-82
2023/06/18 03:55:31;;;;;;;10.33;9.33;;;;;;;;;;4976530;28;20596;-82
2023/06/18 03:58:00;;;;;;;11.40;9.33;;;;;;;;;;4960331;28;20596;-82
2023/06/18 04:00:31;;;;;;;10.13;9.23;;;;;;;;;;4975488;28;20985;-82
2023/06/18 04:02:59;;;;;;;12.53;9.73;;;;;;;;;;4959253;28;20565;-83
2023/06/18 04:05:27;;;;;;;10.23;8.37;;;;;;;;;;4967942;28;20667;-84
2023/06/18 04:07:56;;;;;;;9.97;9.07;;;;;;;;;;4982779;28;21206;-83
2023/06/18 04:10:24;;;;;;;9.33;8.30;;;;;;;;;;4996893;28;20627;-83
2023/06/18 04:12:52;;;;;;;9.83;8.93;;;;;;;;;;4977003;28;20966;-82
2023/06/18 04:15:21;;;;;;;10.57;9.47;;;;;;;;;;4993112;28;20630;-82
2023/06/18 04:17:51;;;;;;;9.93;9.03;;;;;;;;;;4959053;28;20693;-83
2023/06/18 04:20:19;;;;;;;10.47;9.47;;;;;;;;;;4953456;28;20636;-83
2023/06/18 04:22:47;;;;;;;10.47;9.53;;;;;;;;;;4990532;28;20987;-83
2023/06/18 04:25:16;;;;;;;15.70;9.50;;;;;;;;;;4968234;28;20610;-82
2023/06/18 04:27:46;;;;;;;9.87;8.87;;;;;;;;;;4979587;28;20651;-82
2023/06/18 04:30:14;;;;;;;10.57;9.67;;;;;;;;;;4979660;28;20776;-85
2023/06/18 04:32:44;;;;;;;13.53;8.90;;;;;;;;;;4990613;28;21382;-85
2023/06/18 04:35:14;;;;;;;10.63;9.60;;;;;;;;;;4968271;28;20733;-81
2023/06/18 04:37:43;;;;;;;9.93;9.00;;;;;;;;;;4961185;28;20689;-81
2023/06/18 04:40:11;;;;;;;10.90;8.87;;;;;;;;;;4961933;28;20742;-81
2023/06/18 04:42:41;;;;;;;10.27;9.30;;;;;;;;;;4959477;28;21227;-81
2023/06/18 04:45:14;;;;;;;9.13;8.23;;;;;;;;;;4961180;28;20698;-82
2023/06/18 04:47:43;;;;;;;10.93;9.60;;;;;;;;;;4954486;28;20713;-82
2023/06/18 04:50:12;;;;;;;11.10;8.83;;;;;;;;;;4986026;28;20726;-81
2023/06/18 04:52:46;;;;;;;10.20;8.83;;;;;;;;;;4962618;28;20732;-82
2023/06/18 04:55:15;;;;;;;14.93;8.90;;;;;;;;;;4952418;28;20717;-82
2023/06/18 04:57:44;;;;;;;11.07;9.17;;;;;;;;;;4980332;28;20695;-84
2023/06/18 05:00:13;;;;;;;10.70;9.70;;;;;;;;;;4988431;28;20654;-82
2023/06/18 05:02:45;;;;;;;12.30;10.07;;;;;;;;;;4982750;28;20678;-83
2023/06/18 05:05:15;;;;;;;11.70;10.67;;;;;;;;;;4975728;28;20619;-83
2023/06/18 05:07:43;;;;;;;12.03;10.17;;;;;;;;;;4970142;28;20786;-81
2023/06/18 05:10:14;;;;;;;11.27;10.17;;;;;;;;;;4959802;28;20646;-81
2023/06/18 05:12:44;;;;;;;13.07;10.60;;;;;;;;;;4977226;28;20612;-82
2023/06/18 05:15:12;;;;;;;10.87;9.97;;;;;;;;;;4954071;28;21130;-81
2023/06/18 05:17:40;;;;;;;12.60;11.30;;;;;;;;;;4970463;28;20618;-81
2023/06/18 05:20:13;;;;;;;12.83;10.13;;;;;;;;;;4951146;28;20646;-80
2023/06/18 05:22:42;;;;;;;10.93;9.93;;;;;;;;;;4967551;28;20630;-83
2023/06/18 05:25:13;;;;;;;12.90;11.70;;;;;;;;;;4957908;28;20703;-83
2023/06/18 05:27:42;;;;;;;18.03;11.30;;;;;;;;;;4977231;28;20675;-83
2023/06/18 05:30:10;;;;;;;12.83;11.57;;;;;;;;;;4960162;28;20798;-82
2023/06/18 05:32:40;;;;;;;13.23;11.97;;;;;;;;;;4971856;28;20618;-80
2023/06/18 05:35:12;;;;;;;13.50;11.87;;;;;;;;;;4961694;28;20701;-80
2023/06/18 05:37:49;;;;;;;12.70;10.90;;;;;;;;;;4967633;28;20601;-81
2023/06/18 05:40:18;;;;;;;11.60;10.40;;;;;;;;;;4959105;28;21059;-81
2023/06/18 05:42:47;;;;;;;20.90;11.93;;;;;;;;;;4972052;28;20771;-81
2023/06/18 05:45:18;;;;;;;12.97;11.63;;;;;;;;;;4958510;28;20625;-82
2023/06/18 05:47:47;;;;;;;14.07;12.67;;;;;;;;;;4975566;28;20736;-82
2023/06/18 05:50:24;;;;;;;13.30;12.00;;;;;;;;;;4958531;28;20705;-82
2023/06/18 05:52:53;;;;;;;12.20;11.10;;;;;;;;;;4995041;28;20712;-82
2023/06/18 05:55:22;;;;;;;12.70;11.50;;;;;;;;;;4958646;28;20720;-81
2023/06/18 05:57:51;;;;;;;12.80;11.50;;;;;;;;;;4954847;28;20968;-82
2023/06/18 06:00:19;;;;;;;12.70;11.40;;;;;;;;;;4986612;28;20725;-81
2023/06/18 06:02:48;;;;;;;13.90;11.27;;;;;;;;;;4962119;28;20638;-81
2023/06/18 06:05:21;;;;;;;12.60;10.90;;;;;;;;;;5014010;28;20625;-81
2023/06/18 06:07:51;;;;;;;21.40;12.90;;;;;;;;;;4963862;28;20796;-81
2023/06/18 06:10:19;;;;;;;12.27;11.03;;;;;;;;;;4966332;28;20690;-81
2023/06/18 06:12:49;;;;;;;11.90;10.80;;;;;;;;;;4965915;28;20638;-83
2023/06/18 06:15:18;;;;;;;15.60;11.67;;;;;;;;;;4993900;28;20620;-80
2023/06/18 06:17:47;;;;;;;12.23;10.93;;;;;;;;;;4986971;28;21318;-86
2023/06/18 06:20:16;;;;;;;13.40;10.47;;;;;;;;;;4974383;28;20665;-86
2023/06/18 06:22:44;;;;;;;13.53;12.23;;;;;;;;;;4981489;28;20626;-85
2023/06/18 06:25:12;;;;;;;13.03;11.80;;;;;;;;;;4996926;28;20629;-82
2023/06/18 06:27:41;;;;;;;14.20;12.80;;;;;;;;;;4976459;28;20668;-84
2023/06/18 06:30:11;;;;;;;13.70;11.80;;;;;;;;;;4964756;28;20625;-83
2023/06/18 06:32:40;;;;;;;13.20;11.90;;;;;;;;;;4979340;28;20625;-82
2023/06/18 06:35:08;;;;;;;13.20;12.00;;;;;;;;;;4983253;28;20622;-81
2023/06/18 06:37:37;;;;;;;17.13;11.90;;;;;;;;;;4998218;28;20624;-81
2023/06/18 06:40:09;;;;;;;12.93;11.53;;;;;;;;;;5001366;28;20779;-81
2023/06/18 06:42:39;;;;;;;16.37;11.67;;;;;;;;;;4988081;28;20629;-81
2023/06/18 06:45:30;;;;;;;12.13;10.93;;;;;;;;;;4959115;28;20680;-82
2023/06/18 06:48:05;;;;;;;14.90;11.03;;;;;;;;;;4978092;28;20641;-84
2023/06/18 06:50:56;;;;;;;12.73;11.53;;;;;;;;;;4964463;28;20632;-81
2023/06/18 06:53:43;;;;;;;13.97;11.77;;;;;;;;;;4986020;28;20635;-82
2023/06/18 06:56:11;;;;;;;14.80;12.00;;;;;;;;;;4987359;28;20629;-82
2023/06/18 06:58:39;;;;;;;12.17;11.07;;;;;;;;;;4966818;28;20676;-81
2023/06/18 07:01:09;;;;;;;12.43;11.00;;;;;;;;;;4976920;28;20630;-82
2023/06/18 07:03:37;;;;;;;11.30;10.20;;;;;;;;;;4973930;28;20703;-81
2023/06/18 07:06:06;;;;;;;12.33;11.23;;;;;;;;;;4987351;28;20688;-82
2023/06/18 07:08:34;;;;;;;12.17;11.10;;;;;;;;;;4971326;28;21050;-82
2023/06/18 07:11:02;;;;;;;11.03;10.10;;;;;;;;;;4973586;28;20634;-83
2023/06/18 07:13:31;;;;;;;14.83;10.67;;;;;;;;;;4995493;28;20976;-83
2023/06/18 07:15:59;;;;;;;11.10;10.07;;;;;;;;;;4970684;28;21254;-83
2023/06/18 07:18:29;;;;;;;11.37;10.37;;;;;;;;;;4996849;28;20675;-83
2023/06/18 07:20:57;;;;;;;12.07;10.97;;;;;;;;;;4998066;28;20636;-82
2023/06/18 07:23:25;;;;;;;14.60;10.27;;;;;;;;;;5016678;28;20639;-83
2023/06/18 07:25:53;;;;;;;12.73;11.53;;;;;;;;;;4982094;28;20612;-83
2023/06/18 07:28:22;;;;;;;12.27;10.97;;;;;;;;;;5023492;28;21348;-84
2023/06/18 07:30:50;;;;;;;11.87;10.47;;;;;;;;;;5009120;28;20688;-85
2023/06/18 07:33:20;;;;;;;13.77;11.10;;;;;;;;;;5022282;28;20635;-87
2023/06/18 07:35:50;;;;;;;13.30;11.90;;;;;;;;;;4990143;28;20630;-87
2023/06/18 07:38:19;;;;;;;12.83;11.63;;;;;;;;;;4972658;28;21065;-83
2023/06/18 07:40:47;;;;;;;11.10;10.07;;;;;;;;;;4972907;28;21149;-87
2023/06/18 07:43:18;;;;;;;11.30;10.20;;;;;;;;;;4989279;28;20610;-86
2023/06/18 07:45:46;;;;;;;12.73;10.87;;;;;;;;;;4984389;28;20730;-86
2023/06/18 07:48:14;;;;;;;12.57;10.20;;;;;;;;;;4973777;28;20664;-86
2023/06/18 07:50:43;;;;;;;11.43;10.43;;;;;;;;;;4999608;28;20704;-86
2023/06/18 07:53:12;;;;;;;12.77;11.07;;;;;;;;;;4965513;28;20713;-85
2023/06/18 07:55:41;;;;;;;12.37;11.10;;;;;;;;;;4998576;28;20685;-86
2023/06/18 07:58:09;;;;;;;10.93;10.13;;;;;;;;;;4959226;28;20726;-85
2023/06/18 08:00:37;;;;;;;11.03;9.93;;;;;;;;;;4991204;28;20760;-85
2023/06/18 08:03:06;;;;;;;12.23;11.13;;;;;;;;;;4969610;28;20694;-84
2023/06/18 08:05:34;;;;;;;12.63;11.43;;;;;;;;;;4975406;28;20689;-82
2023/06/18 08:08:02;;;;;;;10.90;9.80;;;;;;;;;;5003801;28;20741;-83
2023/06/18 08:10:32;;;;;;;11.47;10.50;;;;;;;;;;4970513;28;20730;-85
2023/06/18 08:13:01;;;;;;;11.73;10.63;;;;;;;;;;5007996;28;20724;-85
2023/06/18 08:15:29;;;;;;;11.40;10.53;;;;;;;;;;4976568;28;20634;-84
2023/06/18 08:17:57;;;;;;;12.00;10.90;;;;;;;;;;4983871;28;20598;-84
2023/06/18 08:20:26;;;;;;;11.00;10.00;;;;;;;;;;4983294;28;20765;-91
2023/06/18 08:22:55;;;;;;;13.00;9.73;;;;;;;;;;4993118;28;20626;-88
2023/06/18 08:25:26;;;;;;;11.17;9.80;;;;;;;;;;4996391;28;20625;-87
2023/06/18 08:27:58;;;;;;;10.37;9.57;;;;;;;;;;4979794;28;20659;-87
2023/06/18 08:30:27;;;;;;;11.33;9.57;;;;;;;;;;4979649;28;20630;-87
2023/06/18 08:33:05;;;;;;;12.40;9.90;;;;;;;;;;4980824;28;20606;-88
2023/06/18 08:35:33;;;;;;;14.47;13.30;;;;;;;;;;4979355;28;20623;-87
2023/06/18 08:38:03;;;;;;;11.13;10.13;;;;;;;;;;4979078;28;20670;-86
2023/06/18 08:40:36;;;;;;;10.17;9.20;;;;;;;;;;5012457;28;20646;-87
2023/06/18 08:43:10;;;;;;;11.10;8.67;;;;;;;;;;5009533;28;20709;-86
2023/06/18 08:45:41;;;;;;;9.80;9.00;;;;;;;;;;4997543;28;20681;-88
2023/06/18 08:48:09;;;;;;;15.43;9.90;;;;;;;;;;4969590;28;21166;-87
2023/06/18 08:50:40;;;;;;;9.47;8.67;;;;;;;;;;4964503;28;20693;-87
2023/06/18 08:53:12;;;;;;;9.70;8.90;;;;;;;;;;5004190;28;20748;-87
2023/06/18 08:55:42;;;;;;;14.83;9.23;;;;;;;;;;5006981;23;20615;-64
2023/06/18 08:58:16;;;;;;;10.63;9.83;;;;;;;;;;5049789;28;21004;-63
2023/06/18 09:00:48;;;;;;;10.00;9.10;;;;;;;;;;5050510;28;20617;-64
2023/06/18 09:03:17;;;;;;;28.60;25.87;;;;;;;;;;5047695;28;20593;-64
2023/06/18 09:05:45;;;;;;;10.03;9.13;;;;;;;;;;5034691;28;20700;-63
2023/06/18 09:08:14;;;;;;;9.77;9.10;;;;;;;;;;5053843;28;20658;-63
2023/06/18 09:10:42;;;;;;;9.87;8.97;;;;;;;;;;5046654;28;21279;-64
2023/06/18 09:13:12;;;;;;;9.23;8.53;;;;;;;;;;5052856;28;20652;-63
2023/06/18 09:15:40;;;;;;;9.40;8.70;;;;;;;;;;5055094;28;20631;-63
2023/06/18 09:18:08;;;;;;;10.27;8.53;;;;;;;;;;5053725;28;20618;-64
2023/06/18 09:20:37;;;;;;;9.57;8.77;;;;;;;;;;5054362;28;20625;-63
2023/06/18 09:23:10;;;;;;;9.63;8.90;;;;;;;;;;5053421;28;20622;-64
2023/06/18 09:25:38;;;;;;;9.50;8.60;;;;;;;;;;5054214;28;20999;-63
2023/06/18 09:28:06;;;;;;;9.53;8.73;;;;;;;;;;5053398;28;20655;-63
2023/06/18 09:30:36;;;;;;;9.13;8.43;;;;;;;;;;5054066;28;20615;-63
2023/06/18 09:33:04;;;;;;;9.47;8.67;;;;;;;;;;5053286;28;20645;-64
2023/06/18 09:35:32;;;;;;;9.73;8.77;;;;;;;;;;5054186;28;20615;-63
2023/06/18 09:38:09;;;;;;;9.70;8.80;;;;;;;;;;5053850;28;21364;-64
2023/06/18 09:40:37;;;;;;;9.47;8.63;;;;;;;;;;5036744;28;20585;-64
2023/06/18 09:43:05;;;;;;;10.10;9.30;;;;;;;;;;5035932;28;20615;-63
2023/06/18 09:45:33;;;;;;;9.93;9.23;;;;;;;;;;5045500;28;20610;-64
2023/06/18 09:48:03;;;;;;;10.23;9.33;;;;;;;;;;5036455;28;21056;-63
2023/06/18 09:50:32;;;;;;;9.40;8.80;;;;;;;;;;5036199;28;20631;-63
2023/06/18 09:53:01;;;;;;;9.77;8.80;;;;;;;;;;5016541;28;20604;-64
2023/06/18 09:55:31;;;;;;;10.50;9.70;;;;;;;;;;5016157;28;20612;-64
2023/06/18 09:58:00;;;;;;;9.50;8.70;;;;;;;;;;5033832;28;20622;-63
2023/06/18 10:00:29;;;;;;;9.60;8.97;;;;;;;;;;5033203;28;20618;-64
2023/06/18 10:03:06;;;;;;;10.63;9.53;;;;;;;;;;5033550;28;20677;-63
2023/06/18 10:05:35;;;;;;;9.17;8.23;;;;;;;;;;5032811;28;20584;-64
2023/06/18 10:08:04;;;;;;;13.67;9.30;;;;;;;;;;5033682;28;20717;-63
2023/06/18 10:10:33;;;;;;;13.70;9.63;;;;;;;;;;5031687;28;20636;-64
2023/06/18 10:13:05;;;;;;;12.70;9.03;;;;;;;;;;5053369;28;20611;-63
2023/06/18 10:15:33;;;;;;;10.83;9.90;;;;;;;;;;5051466;28;20587;-64
2023/06/18 10:18:02;;;;;;;10.30;9.40;;;;;;;;;;5052656;28;21176;-63
2023/06/18 10:20:33;;;;;;;9.07;8.47;;;;;;;;;;5052578;28;20619;-63
2023/06/18 10:23:06;;;;;;;9.97;9.03;;;;;;;;;;5054340;28;20571;-64
2023/06/18 10:25:35;;;;;;;8.47;7.97;;;;;;;;;;5053374;28;20614;-64
2023/06/18 10:28:03;;;;;;;9.27;8.57;;;;;;;;;;5053652;28;20985;-63
2023/06/18 10:30:31;;;;;;;9.13;8.40;;;;;;;;;;5052881;28;20622;-64
2023/06/18 10:33:00;;;;;;;8.33;7.73;;;;;;;;;;5053632;28;20637;-63
2023/06/18 10:35:28;;;;;;;8.20;7.67;;;;;;;;;;5052953;28;21027;-63
2023/06/18 10:37:58;;;;;;;8.10;7.60;;;;;;;;;;5053793;28;20621;-63
2023/06/18 10:40:27;;;;;;;8.83;7.87;;;;;;;;;;5052785;28;20587;-64
2023/06/18 10:43:03;;;;;;;9.43;8.83;;;;;;;;;;5053579;28;20617;-64
2023/06/18 10:45:32;;;;;;;9.13;8.30;;;;;;;;;;5052584;28;20601;-64
2023/06/18 10:48:15;;;;;;;9.30;8.53;;;;;;;;;;5053257;28;20633;-63
2023/06/18 10:51:05;;;;;;;8.80;8.10;;;;;;;;;;5053002;28;21140;-64
2023/06/18 10:53:34;;;;;;;14.83;7.73;;;;;;;;;;5045033;28;20611;-63
2023/06/18 10:56:03;;;;;;;8.60;8.00;;;;;;;;;;5051394;28;20704;-64
2023/06/18 10:58:37;;;;;;;9.20;8.20;;;;;;;;;;5053224;28;20579;-64
2023/06/18 11:01:05;;;;;;;6.90;6.50;;;;;;;;;;5052041;28;20595;-65
2023/06/18 11:03:34;;;;;;;6.90;6.50;;;;;;;;;;5043244;28;21181;-64
2023/06/18 11:06:03;;;;;;;9.03;7.53;;;;;;;;;;5051631;28;20664;-64
2023/06/18 11:08:32;;;;;;;7.10;6.70;;;;;;;;;;5052132;28;20670;-63
2023/06/18 11:11:06;;;;;;;8.07;7.17;;;;;;;;;;5050681;28;20647;-64
2023/06/18 11:13:37;;;;;;;6.90;6.30;;;;;;;;;;5051751;28;20610;-63
2023/06/18 11:16:13;;;;;;;11.80;7.17;;;;;;;;;;5051464;28;20944;-64
2023/06/18 11:18:41;;;;;;;7.83;7.20;;;;;;;;;;5052327;28;20578;-63
2023/06/18 11:21:14;;;;;;;7.90;6.60;;;;;;;;;;5052360;28;20610;-64
2023/06/18 11:23:43;;;;;;;7.23;6.40;;;;;;;;;;5052420;28;20930;-64
2023/06/18 11:26:15;;;;;;;6.67;6.17;;;;;;;;;;5051988;28;20618;-64
2023/06/18 11:28:44;;;;;;;7.07;6.37;;;;;;;;;;5051218;28;21005;-65
2023/06/18 11:31:12;;;;;;;6.80;6.17;;;;;;;;;;5049480;28;20630;-64
2023/06/18 11:33:46;;;;;;;7.17;6.50;;;;;;;;;;5007635;28;20635;-64
2023/06/18 11:36:17;;;;;;;6.77;6.27;;;;;;;;;;5047322;28;20619;-63
2023/06/18 11:38:45;;;;;;;6.70;6.27;;;;;;;;;;5041793;28;21166;-64
2023/06/18 11:41:13;;;;;;;6.43;5.83;;;;;;;;;;5047488;28;20615;-64
2023/06/18 11:43:47;;;;;;;6.73;6.33;;;;;;;;;;5050725;28;21184;-65
2023/06/18 11:46:27;;;;;;;7.53;6.93;;;;;;;;;;5048418;28;20603;-64
2023/06/18 11:48:55;;;;;;;8.00;7.40;;;;;;;;;;5028649;28;20643;-64
2023/06/18 11:51:24;;;;;;;7.37;6.87;;;;;;;;;;5023055;28;20631;-63
2023/06/18 11:53:53;;;;;;;7.23;6.50;;;;;;;;;;5049914;28;21049;-63
2023/06/18 11:56:25;;;;;;;7.47;6.80;;;;;;;;;;5042496;28;20651;-63
2023/06/18 11:58:55;;;;;;;7.30;6.90;;;;;;;;;;5037887;28;21168;-63
2023/06/18 12:01:27;;;;;;;7.47;6.97;;;;;;;;;;5049793;28;20713;-64
2023/06/18 12:04:02;;;;;;;7.73;7.03;;;;;;;;;;5032147;28;20587;-64
2023/06/18 12:06:30;;;;;;;6.90;6.50;;;;;;;;;;5050251;28;20603;-64
2023/06/18 12:09:04;;;;;;;7.10;6.57;;;;;;;;;;5031859;28;20615;-64
2023/06/18 12:11:37;;;;;;;7.20;6.70;;;;;;;;;;5050151;28;20655;-63
2023/06/18 12:14:09;;;;;;;9.30;7.17;;;;;;;;;;5049850;28;20617;-64
2023/06/18 12:16:39;;;;;;;7.30;6.10;;;;;;;;;;5050701;28;20610;-64
2023/06/18 12:19:08;;;;;;;7.97;7.17;;;;;;;;;;5032364;28;20628;-64
2023/06/18 12:21:37;;;;;;;7.30;6.70;;;;;;;;;;5037047;28;20628;-64
2023/06/18 12:24:05;;;;;;;7.20;6.67;;;;;;;;;;5044915;28;20624;-64
2023/06/18 12:26:34;;;;;;;7.10;6.60;;;;;;;;;;5050132;28;21476;-63
2023/06/18 12:29:02;;;;;;;6.83;6.33;;;;;;;;;;5031826;28;20688;-64
2023/06/18 12:31:32;;;;;;;7.00;6.50;;;;;;;;;;5050260;28;21024;-63
2023/06/18 12:34:00;;;;;;;11.10;8.13;;;;;;;;;;5050022;28;20651;-63
2023/06/18 12:36:29;;;;;;;6.90;6.50;;;;;;;;;;5028109;28;20647;-63
2023/06/18 12:38:57;;;;;;;6.80;6.30;;;;;;;;;;5049874;28;20619;-63
2023/06/18 12:41:26;;;;;;;8.63;6.00;;;;;;;;;;5050671;28;20627;-63
2023/06/18 12:43:55;;;;;;;7.47;6.23;;;;;;;;;;5050647;28;21041;-65
2023/06/18 12:46:26;;;;;;;7.13;6.40;;;;;;;;;;5048446;28;21189;-64
2023/06/18 12:49:00;;;;;;;8.60;6.60;;;;;;;;;;5049534;28;20608;-63
2023/06/18 12:51:41;;;;;;;7.67;6.90;;;;;;;;;;5030638;28;20600;-64
2023/06/18 12:54:14;;;;;;;7.40;6.80;;;;;;;;;;5046003;28;20653;-64
2023/06/18 12:56:48;;;;;;;7.70;7.30;;;;;;;;;;5050493;28;21199;-64
2023/06/18 12:59:18;;;;;;;7.57;6.77;;;;;;;;;;5049444;28;20604;-65
2023/06/18 13:01:47;;;;;;;8.50;7.00;;;;;;;;;;5045312;28;20688;-64
2023/06/18 13:04:20;;;;;;;7.60;7.00;;;;;;;;;;5047915;28;20981;-65
2023/06/18 13:06:48;;;;;;;7.10;6.70;;;;;;;;;;5052143;28;20635;-65
2023/06/18 13:09:16;;;;;;;8.20;7.37;;;;;;;;;;5043708;28;20619;-64
2023/06/18 13:11:46;;;;;;;7.57;7.07;;;;;;;;;;5025591;28;20620;-65
2023/06/18 13:14:14;;;;;;;11.10;7.43;;;;;;;;;;5044560;28;21195;-65
2023/06/18 13:16:42;;;;;;;6.63;6.23;;;;;;;;;;5032629;28;21265;-64
2023/06/18 13:19:11;;;;;;;7.73;7.23;;;;;;;;;;5029907;28;20656;-64
2023/06/18 13:21:41;;;;;;;8.70;7.37;;;;;;;;;;5050882;28;20603;-65
2023/06/18 13:24:09;;;;;;;7.20;6.70;;;;;;;;;;5050102;28;20959;-64
2023/06/18 13:26:38;;;;;;;7.03;6.53;;;;;;;;;;5050635;28;20687;-64
2023/06/18 13:29:08;;;;;;;7.03;6.53;;;;;;;;;;5032106;28;20623;-64
2023/06/18 13:31:36;;;;;;;7.63;7.07;;;;;;;;;;5032153;28;20654;-65
2023/06/18 13:34:04;;;;;;;7.63;7.13;;;;;;;;;;5048973;28;20626;-64
2023/06/18 13:36:33;;;;;;;7.20;6.80;;;;;;;;;;5042243;28;20613;-65
2023/06/18 13:39:02;;;;;;;7.20;6.80;;;;;;;;;;5031279;28;20616;-65
2023/06/18 13:41:30;;;;;;;7.60;6.90;;;;;;;;;;5049166;28;20626;-65
2023/06/18 13:43:59;;;;;;;8.03;7.47;;;;;;;;;;5049503;28;20615;-64
2023/06/18 13:46:27;;;;;;;7.53;6.97;;;;;;;;;;5049989;28;20619;-65
2023/06/18 13:48:56;;;;;;;9.57;7.60;;;;;;;;;;5031201;28;20626;-68
2023/06/18 13:51:24;;;;;;;7.63;7.23;;;;;;;;;;5052261;28;20662;-66
2023/06/18 13:53:52;;;;;;;8.60;8.00;;;;;;;;;;5053144;28;20640;-65
2023/06/18 13:56:22;;;;;;;7.20;6.83;;;;;;;;;;5053378;28;21073;-65
2023/06/18 13:58:50;;;;;;;8.20;7.73;;;;;;;;;;5052507;28;20623;-65
2023/06/18 14:01:19;;;;;;;7.43;7.03;;;;;;;;;;5049560;28;20620;-65
2023/06/18 14:03:47;;;;;;;9.57;7.73;;;;;;;;;;5031930;28;20611;-65
2023/06/18 14:06:15;;;;;;;7.47;7.07;;;;;;;;;;5038423;28;20634;-65
2023/06/18 14:08:44;;;;;;;7.63;7.10;;;;;;;;;;5049351;28;20631;-67
2023/06/18 14:11:12;;;;;;;8.73;8.07;;;;;;;;;;5051165;28;20667;-64
2023/06/18 14:13:42;;;;;;;7.70;7.20;;;;;;;;;;5052552;28;20627;-65
2023/06/18 14:16:10;;;;;;;8.60;7.80;;;;;;;;;;5052421;28;20623;-62
2023/06/18 14:18:38;;;;;;;8.37;7.60;;;;;;;;;;5052489;28;20627;-65
2023/06/18 14:21:06;;;;;;;8.20;7.60;;;;;;;;;;5051329;28;20689;-65
2023/06/18 14:23:35;;;;;;;8.70;8.00;;;;;;;;;;5052651;28;20631;-65
2023/06/18 14:26:03;;;;;;;7.90;7.20;;;;;;;;;;5034833;28;20629;-65
2023/06/18 14:28:31;;;;;;;8.20;7.70;;;;;;;;;;5052371;28;20951;-64
2023/06/18 14:31:02;;;;;;;8.20;7.63;;;;;;;;;;5052804;28;20651;-64
2023/06/18 14:33:31;;;;;;;8.37;7.87;;;;;;;;;;5053157;28;20597;-65
2023/06/18 14:35:59;;;;;;;9.40;8.63;;;;;;;;;;5052472;28;20624;-64
2023/06/18 14:38:27;;;;;;;8.50;7.80;;;;;;;;;;5045690;28;20638;-64
2023/06/18 14:40:55;;;;;;;11.40;8.73;;;;;;;;;;5032370;28;20674;-64
2023/06/18 14:43:23;;;;;;;8.20;7.60;;;;;;;;;;5015711;28;20619;-65
2023/06/18 14:45:52;;;;;;;8.40;7.80;;;;;;;;;;5031807;28;20590;-65
2023/06/18 14:48:21;;;;;;;8.37;7.67;;;;;;;;;;5033481;28;20624;-64